sensor_id;sensor_type;location;lat;lon;timestamp;temperature;humidity
42187;DHT22;27858;51.414;0.018;2022-12-07T00:03:49;5.40;99.90
42187;DHT22;27858;51.414;0.018;2022-12-07T00:06:16;5.40;99.90
42187;DHT22;27858;51.414;0.018;2022-12-07T00:08:44;5.40;99.90
42187;DHT22;27858;51.414;0.018;2022-12-07T00:11:14;5.50;99.90
42187;DHT22;27858;51.414;0.018;2022-12-07T00:13:41;5.40;99.90
42187;DHT22;27858;51.414;0.018;2022-12-07T00:16:10;5.50;99.90
42187;DHT22;27858;51.414;0.018;2022-12-07T00:18:38;5.50;99.90
42187;DHT22;27858;51.414;0.018;2022-12-07T00:21:15;5.50;99.90
42187;DHT22;27858;51.414;0.018;2022-12-07T00:23:43;5.60;99.90
42187;DHT22;27858;51.414;0.018;2022-12-07T00:26:22;5.60;99.90
42187;DHT22;27858;51.414;0.018;2022-12-07T00:28:52;5.50;99.90
42187;DHT22;27858;51.414;0.018;2022-12-07T00:31:23;5.50;97.50
42187;DHT22;27858;51.414;0.018;2022-12-07T00:33:50;5.60;95.40
42187;DHT22;27858;51.414;0.018;2022-12-07T00:36:22;5.60;96.60
42187;DHT22;27858;51.414;0.018;2022-12-07T00:38:53;5.60;94.90
42187;DHT22;27858;51.414;0.018;2022-12-07T00:41:22;5.70;93.10
42187;DHT22;27858;51.414;0.018;2022-12-07T00:43:50;5.60;90.70
42187;DHT22;27858;51.414;0.018;2022-12-07T00:46:18;5.70;82.10
42187;DHT22;27858;51.414;0.018;2022-12-07T00:48:45;5.60;72.60
42187;DHT22;27858;51.414;0.018;2022-12-07T00:51:13;5.50;65.30
42187;DHT22;27858;51.414;0.018;2022-12-07T00:53:41;5.50;61.10
42187;DHT22;27858;51.414;0.018;2022-12-07T00:56:21;5.50;59.40
42187;DHT22;27858;51.414;0.018;2022-12-07T00:58:59;5.40;62.20
42187;DHT22;27858;51.414;0.018;2022-12-07T05:01:38;4.90;99.90
42187;DHT22;27858;51.414;0.018;2022-12-07T05:04:05;4.90;99.90
42187;DHT22;27858;51.414;0.018;2022-12-07T05:06:32;4.90;99.90
42187;DHT22;27858;51.414;0.018;2022-12-07T05:08:59;4.90;99.90
42187;DHT22;27858;51.414;0.018;2022-12-07T05:11:26;4.80;99.90
42187;DHT22;27858;51.414;0.018;2022-12-07T05:14:18;4.90;99.90
42187;DHT22;27858;51.414;0.018;2022-12-07T05:16:48;4.90;99.90
42187;DHT22;27858;51.414;0.018;2022-12-07T05:19:16;4.80;99.90
42187;DHT22;27858;51.414;0.018;2022-12-07T05:21:43;4.80;99.90
42187;DHT22;27858;51.414;0.018;2022-12-07T05:24:13;4.80;99.90
42187;DHT22;27858;51.414;0.018;2022-12-07T05:26:41;4.80;99.90
42187;DHT22;27858;51.414;0.018;2022-12-07T05:29:12;4.80;99.90
42187;DHT22;27858;51.414;0.018;2022-12-07T05:31:39;4.90;99.90
42187;DHT22;27858;51.414;0.018;2022-12-07T05:34:05;4.90;99.90
42187;DHT22;27858;51.414;0.018;2022-12-07T05:36:32;5.00;99.90
42187;DHT22;27858;51.414;0.018;2022-12-07T05:38:59;4.90;99.90
42187;DHT22;27858;51.414;0.018;2022-12-07T05:41:26;4.90;99.00
42187;DHT22;27858;51.414;0.018;2022-12-07T05:44:11;4.90;99.00
42187;DHT22;27858;51.414;0.018;2022-12-07T05:46:38;4.90;93.50
42187;DHT22;27858;51.414;0.018;2022-12-07T05:49:05;4.80;90.00
42187;DHT22;27858;51.414;0.018;2022-12-07T05:51:31;4.80;86.60
42187;DHT22;27858;51.414;0.018;2022-12-07T05:53:58;4.80;87.50
42187;DHT22;27858;51.414;0.018;2022-12-07T05:56:25;4.90;85.50
42187;DHT22;27858;51.414;0.018;2022-12-07T05:58:53;4.80;85.50
42187;DHT22;27858;51.414;0.018;2022-12-07T06:01:39;4.80;82.90
42187;DHT22;27858;51.414;0.018;2022-12-07T06:04:06;4.80;83.80
42187;DHT22;27858;51.414;0.018;2022-12-07T06:06:33;4.80;80.60
42187;DHT22;27858;51.414;0.018;2022-12-07T06:09:00;4.80;87.70
42187;DHT22;27858;51.414;0.018;2022-12-07T06:11:27;4.90;88.90
42187;DHT22;27858;51.414;0.018;2022-12-07T06:14:12;4.90;87.20
42187;DHT22;27858;51.414;0.018;2022-12-07T06:16:39;4.80;88.70
42187;DHT22;27858;51.414;0.018;2022-12-07T06:19:06;4.90;88.10
42187;DHT22;27858;51.414;0.018;2022-12-07T06:21:33;4.90;87.00
42187;DHT22;27858;51.414;0.018;2022-12-07T06:24:00;4.80;84.40
42187;DHT22;27858;51.414;0.018;2022-12-07T06:26:26;4.90;85.00
42187;DHT22;27858;51.414;0.018;2022-12-07T06:28:53;4.80;78.00
42187;DHT22;27858;51.414;0.018;2022-12-07T06:31:20;4.90;83.80
42187;DHT22;27858;51.414;0.018;2022-12-07T06:33:47;4.90;79.40
42187;DHT22;27858;51.414;0.018;2022-12-07T06:36:14;4.80;65.50
42187;DHT22;27858;51.414;0.018;2022-12-07T06:38:40;4.80;66.30
42187;DHT22;27858;51.414;0.018;2022-12-07T06:41:07;4.80;72.10
42187;DHT22;27858;51.414;0.018;2022-12-07T06:43:34;4.80;63.00
42187;DHT22;27858;51.414;0.018;2022-12-07T06:46:01;4.80;63.60
42187;DHT22;27858;51.414;0.018;2022-12-07T06:48:27;4.90;64.30
42187;DHT22;27858;51.414;0.018;2022-12-07T06:50:54;4.90;53.30
42187;DHT22;27858;51.414;0.018;2022-12-07T06:53:22;4.90;46.30
42187;DHT22;27858;51.414;0.018;2022-12-07T06:55:49;4.90;43.70
42187;DHT22;27858;51.414;0.018;2022-12-07T06:58:16;4.80;40.20
42187;DHT22;27858;51.414;0.018;2022-12-07T07:00:43;4.90;40.40
42187;DHT22;27858;51.414;0.018;2022-12-07T07:03:10;4.90;39.00
42187;DHT22;27858;51.414;0.018;2022-12-07T07:05:37;4.90;39.60
42187;DHT22;27858;51.414;0.018;2022-12-07T07:08:03;4.90;42.10
42187;DHT22;27858;51.414;0.018;2022-12-07T07:10:47;4.90;43.00
42187;DHT22;27858;51.414;0.018;2022-12-07T07:13:14;4.80;35.90
42187;DHT22;27858;51.414;0.018;2022-12-07T07:15:41;4.90;30.30
42187;DHT22;27858;51.414;0.018;2022-12-07T07:18:08;4.80;28.50
42187;DHT22;27858;51.414;0.018;2022-12-07T07:20:37;4.80;28.20
42187;DHT22;27858;51.414;0.018;2022-12-07T07:23:04;4.90;29.70
42187;DHT22;27858;51.414;0.018;2022-12-07T07:25:31;4.90;31.70
42187;DHT22;27858;51.414;0.018;2022-12-07T07:27:58;4.80;35.30
42187;DHT22;27858;51.414;0.018;2022-12-07T07:30:25;4.80;39.00
42187;DHT22;27858;51.414;0.018;2022-12-07T07:33:00;4.80;35.20
42187;DHT22;27858;51.414;0.018;2022-12-07T07:35:28;4.90;34.20
42187;DHT22;27858;51.414;0.018;2022-12-07T07:37:55;4.80;34.80
42187;DHT22;27858;51.414;0.018;2022-12-07T07:40:23;4.80;29.00
42187;DHT22;27858;51.414;0.018;2022-12-07T07:42:51;4.80;31.00
42187;DHT22;27858;51.414;0.018;2022-12-07T07:45:20;4.80;27.20
42187;DHT22;27858;51.414;0.018;2022-12-07T07:47:47;4.80;28.10
42187;DHT22;27858;51.414;0.018;2022-12-07T07:50:14;4.80;25.90
42187;DHT22;27858;51.414;0.018;2022-12-07T07:52:41;4.90;25.40
42187;DHT22;27858;51.414;0.018;2022-12-07T07:55:08;4.90;22.30
42187;DHT22;27858;51.414;0.018;2022-12-07T07:57:36;4.80;20.90
42187;DHT22;27858;51.414;0.018;2022-12-07T08:00:13;4.90;22.30
42187;DHT22;27858;51.414;0.018;2022-12-07T08:02:41;4.80;20.10
42187;DHT22;27858;51.414;0.018;2022-12-07T08:05:10;4.90;21.40
42187;DHT22;27858;51.414;0.018;2022-12-07T08:07:38;4.90;19.00
42187;DHT22;27858;51.414;0.018;2022-12-07T08:10:11;4.90;17.80
42187;DHT22;27858;51.414;0.018;2022-12-07T08:12:39;4.90;16.30
42187;DHT22;27858;51.414;0.018;2022-12-07T08:15:28;4.90;17.00
42187;DHT22;27858;51.414;0.018;2022-12-07T08:17:56;4.90;16.90
42187;DHT22;27858;51.414;0.018;2022-12-07T08:20:22;4.90;16.60
42187;DHT22;27858;51.414;0.018;2022-12-07T08:22:49;4.90;17.60
42187;DHT22;27858;51.414;0.018;2022-12-07T08:25:16;5.00;18.60
42187;DHT22;27858;51.414;0.018;2022-12-07T08:27:43;4.80;13.60
42187;DHT22;27858;51.414;0.018;2022-12-07T08:30:10;4.90;15.60
42187;DHT22;27858;51.414;0.018;2022-12-07T08:32:37;4.90;12.90
42187;DHT22;27858;51.414;0.018;2022-12-07T08:35:03;4.90;6.40
42187;DHT22;27858;51.414;0.018;2022-12-07T08:37:31;4.90;2.30
42187;DHT22;27858;51.414;0.018;2022-12-07T08:39:58;4.80;1.00
42187;DHT22;27858;51.414;0.018;2022-12-07T08:42:25;4.90;1.00
42187;DHT22;27858;51.414;0.018;2022-12-07T08:44:56;4.90;1.00
42187;DHT22;27858;51.414;0.018;2022-12-07T08:47:24;4.90;1.00
42187;DHT22;27858;51.414;0.018;2022-12-07T08:49:52;4.90;1.00
42187;DHT22;27858;51.414;0.018;2022-12-07T08:52:19;4.90;1.00
42187;DHT22;27858;51.414;0.018;2022-12-07T08:54:46;4.90;1.00
42187;DHT22;27858;51.414;0.018;2022-12-07T08:57:13;4.80;1.00
42187;DHT22;27858;51.414;0.018;2022-12-07T08:59:40;4.90;1.00
42187;DHT22;27858;51.414;0.018;2022-12-07T09:02:07;4.90;1.00
42187;DHT22;27858;51.414;0.018;2022-12-07T09:04:33;5.00;1.00
42187;DHT22;27858;51.414;0.018;2022-12-07T09:07:00;5.00;1.00
42187;DHT22;27858;51.414;0.018;2022-12-07T09:09:27;5.00;1.00
42187;DHT22;27858;51.414;0.018;2022-12-07T09:11:54;5.00;1.00
42187;DHT22;27858;51.414;0.018;2022-12-07T09:14:21;5.00;1.00
42187;DHT22;27858;51.414;0.018;2022-12-07T09:16:48;5.00;1.00
42187;DHT22;27858;51.414;0.018;2022-12-07T09:19:15;5.10;1.00
42187;DHT22;27858;51.414;0.018;2022-12-07T09:21:41;5.10;1.00
42187;DHT22;27858;51.414;0.018;2022-12-07T09:24:08;5.10;1.00
42187;DHT22;27858;51.414;0.018;2022-12-07T09:26:35;5.10;1.00
42187;DHT22;27858;51.414;0.018;2022-12-07T09:29:02;5.00;1.00
42187;DHT22;27858;51.414;0.018;2022-12-07T09:31:29;5.10;1.00
42187;DHT22;27858;51.414;0.018;2022-12-07T09:33:58;5.20;1.00
42187;DHT22;27858;51.414;0.018;2022-12-07T09:36:26;5.20;1.00
42187;DHT22;27858;51.414;0.018;2022-12-07T09:38:53;5.20;1.00
42187;DHT22;27858;51.414;0.018;2022-12-07T09:41:21;5.30;1.00
42187;DHT22;27858;51.414;0.018;2022-12-07T09:43:48;5.20;1.00
42187;DHT22;27858;51.414;0.018;2022-12-07T09:46:16;5.20;1.00
42187;DHT22;27858;51.414;0.018;2022-12-07T09:48:46;5.20;1.00
42187;DHT22;27858;51.414;0.018;2022-12-07T09:51:22;5.10;1.00
42187;DHT22;27858;51.414;0.018;2022-12-07T09:53:56;5.20;1.00
42187;DHT22;27858;51.414;0.018;2022-12-07T09:56:24;5.20;1.00
42187;DHT22;27858;51.414;0.018;2022-12-07T09:58:59;5.20;1.00
42187;DHT22;27858;51.414;0.018;2022-12-07T10:01:29;5.20;1.00
42187;DHT22;27858;51.414;0.018;2022-12-07T10:04:19;5.20;1.00
42187;DHT22;27858;51.414;0.018;2022-12-07T10:06:48;5.20;1.00
42187;DHT22;27858;51.414;0.018;2022-12-07T10:09:19;5.10;1.00
42187;DHT22;27858;51.414;0.018;2022-12-07T10:12:08;5.10;1.00
42187;DHT22;27858;51.414;0.018;2022-12-07T10:14:38;5.00;1.00
42187;DHT22;27858;51.414;0.018;2022-12-07T10:19:52;5.00;1.00
42187;DHT22;27858;51.414;0.018;2022-12-07T10:22:19;5.00;1.00
42187;DHT22;27858;51.414;0.018;2022-12-07T10:24:47;5.00;1.00
42187;DHT22;27858;51.414;0.018;2022-12-07T10:27:30;5.00;1.00
42187;DHT22;27858;51.414;0.018;2022-12-07T10:29:58;5.10;1.00
42187;DHT22;27858;51.414;0.018;2022-12-07T10:32:32;5.00;1.00
42187;DHT22;27858;51.414;0.018;2022-12-07T10:37:42;5.10;1.00
42187;DHT22;27858;51.414;0.018;2022-12-07T10:43:17;5.10;1.00
42187;DHT22;27858;51.414;0.018;2022-12-07T10:51:18;5.40;1.00
42187;DHT22;27858;51.414;0.018;2022-12-07T10:56:32;5.40;99.90
42187;DHT22;27858;51.414;0.018;2022-12-07T11:07:38;5.40;99.90
42187;DHT22;27858;51.414;0.018;2022-12-07T11:13:28;5.60;99.90
42187;DHT22;27858;51.414;0.018;2022-12-07T11:27:14;5.90;99.90
42187;DHT22;27858;51.414;0.018;2022-12-07T11:38:12;6.00;99.90
42187;DHT22;27858;51.414;0.018;2022-12-07T11:40:43;6.00;99.90
42187;DHT22;27858;51.414;0.018;2022-12-07T11:43:30;6.00;99.90
42187;DHT22;27858;51.414;0.018;2022-12-07T11:46:10;6.00;99.90
42187;DHT22;27858;51.414;0.018;2022-12-07T11:48:43;6.00;99.90
42187;DHT22;27858;51.414;0.018;2022-12-07T11:51:12;6.00;99.90
42187;DHT22;27858;51.414;0.018;2022-12-07T11:56:19;6.10;99.90
42187;DHT22;27858;51.414;0.018;2022-12-07T11:58:55;6.10;99.90
42187;DHT22;27858;51.414;0.018;2022-12-07T12:01:33;6.00;99.90
42187;DHT22;27858;51.414;0.018;2022-12-07T12:06:39;6.00;99.90
42187;DHT22;27858;51.414;0.018;2022-12-07T12:09:17;6.10;99.90
42187;DHT22;27858;51.414;0.018;2022-12-07T12:20:29;6.10;99.90
42187;DHT22;27858;51.414;0.018;2022-12-07T12:23:01;6.10;99.90
42187;DHT22;27858;51.414;0.018;2022-12-07T12:25:48;6.10;99.90
42187;DHT22;27858;51.414;0.018;2022-12-07T12:28:39;6.10;99.90
42187;DHT22;27858;51.414;0.018;2022-12-07T12:33:52;6.30;99.90
42187;DHT22;27858;51.414;0.018;2022-12-07T12:39:09;6.30;99.90
42187;DHT22;27858;51.414;0.018;2022-12-07T12:46:57;6.30;99.90
42187;DHT22;27858;51.414;0.018;2022-12-07T12:52:01;6.20;99.90
42187;DHT22;27858;51.414;0.018;2022-12-07T12:55:28;6.10;99.90
42187;DHT22;27858;51.414;0.018;2022-12-07T13:00:46;6.20;99.90
42187;DHT22;27858;51.414;0.018;2022-12-07T13:03:30;6.30;99.90
42187;DHT22;27858;51.414;0.018;2022-12-07T13:08:43;6.10;99.90
42187;DHT22;27858;51.414;0.018;2022-12-07T13:11:29;6.00;99.90
42187;DHT22;27858;51.414;0.018;2022-12-07T13:17:03;6.20;99.90
42187;DHT22;27858;51.414;0.018;2022-12-07T13:22:34;6.10;99.90
42187;DHT22;27858;51.414;0.018;2022-12-07T13:28:10;6.20;99.90
42187;DHT22;27858;51.414;0.018;2022-12-07T13:30:46;6.40;99.90
42187;DHT22;27858;51.414;0.018;2022-12-07T13:33:15;6.40;99.90
42187;DHT22;27858;51.414;0.018;2022-12-07T13:35:43;6.40;99.90
42187;DHT22;27858;51.414;0.018;2022-12-07T13:38:29;6.50;99.90
42187;DHT22;27858;51.414;0.018;2022-12-07T13:41:03;6.50;99.90
42187;DHT22;27858;51.414;0.018;2022-12-07T13:43:30;6.40;99.90
42187;DHT22;27858;51.414;0.018;2022-12-07T13:45:58;6.80;99.90
42187;DHT22;27858;51.414;0.018;2022-12-07T13:48:42;7.10;99.90
42187;DHT22;27858;51.414;0.018;2022-12-07T13:51:20;7.20;99.90
42187;DHT22;27858;51.414;0.018;2022-12-07T13:53:49;7.10;99.90
42187;DHT22;27858;51.414;0.018;2022-12-07T13:56:16;7.00;99.90
42187;DHT22;27858;51.414;0.018;2022-12-07T13:58:43;7.00;99.90
42187;DHT22;27858;51.414;0.018;2022-12-07T14:01:11;6.90;99.90
42187;DHT22;27858;51.414;0.018;2022-12-07T14:03:39;6.90;99.90
42187;DHT22;27858;51.414;0.018;2022-12-07T14:06:14;6.90;99.90
42187;DHT22;27858;51.414;0.018;2022-12-07T14:08:43;6.90;99.90
42187;DHT22;27858;51.414;0.018;2022-12-07T14:11:17;6.90;99.90
42187;DHT22;27858;51.414;0.018;2022-12-07T14:13:56;6.90;99.90
42187;DHT22;27858;51.414;0.018;2022-12-07T14:16:35;6.80;99.90
42187;DHT22;27858;51.414;0.018;2022-12-07T14:19:05;6.80;99.90
42187;DHT22;27858;51.414;0.018;2022-12-07T14:22:15;6.90;99.90
42187;DHT22;27858;51.414;0.018;2022-12-07T14:24:44;7.00;99.90
42187;DHT22;27858;51.414;0.018;2022-12-07T14:27:22;7.10;99.90
42187;DHT22;27858;51.414;0.018;2022-12-07T14:29:49;7.10;99.90
42187;DHT22;27858;51.414;0.018;2022-12-07T14:32:36;7.10;99.90
42187;DHT22;27858;51.414;0.018;2022-12-07T14:35:12;7.10;99.90
42187;DHT22;27858;51.414;0.018;2022-12-07T14:37:41;7.10;99.90
42187;DHT22;27858;51.414;0.018;2022-12-07T14:40:22;7.10;99.90
42187;DHT22;27858;51.414;0.018;2022-12-07T14:42:59;7.10;99.90
42187;DHT22;27858;51.414;0.018;2022-12-07T14:45:28;7.10;99.90
42187;DHT22;27858;51.414;0.018;2022-12-07T14:47:54;7.00;99.90
42187;DHT22;27858;51.414;0.018;2022-12-07T14:50:48;7.00;99.90
42187;DHT22;27858;51.414;0.018;2022-12-07T14:53:41;6.80;99.90
42187;DHT22;27858;51.414;0.018;2022-12-07T14:56:09;6.90;99.90
42187;DHT22;27858;51.414;0.018;2022-12-07T14:58:36;6.80;99.90
42187;DHT22;27858;51.414;0.018;2022-12-07T15:01:03;6.80;99.90
42187;DHT22;27858;51.414;0.018;2022-12-07T15:03:29;6.80;99.90
42187;DHT22;27858;51.414;0.018;2022-12-07T15:05:57;6.80;99.90
42187;DHT22;27858;51.414;0.018;2022-12-07T15:08:23;6.80;99.90
42187;DHT22;27858;51.414;0.018;2022-12-07T15:10:50;6.70;99.90
42187;DHT22;27858;51.414;0.018;2022-12-07T15:13:17;6.60;99.90
42187;DHT22;27858;51.414;0.018;2022-12-07T15:16:03;6.50;99.90
42187;DHT22;27858;51.414;0.018;2022-12-07T15:18:30;6.40;99.90
42187;DHT22;27858;51.414;0.018;2022-12-07T15:20:56;6.40;99.90
42187;DHT22;27858;51.414;0.018;2022-12-07T15:23:23;6.20;99.90
42187;DHT22;27858;51.414;0.018;2022-12-07T15:25:50;6.10;99.90
42187;DHT22;27858;51.414;0.018;2022-12-07T15:28:17;6.00;99.90
42187;DHT22;27858;51.414;0.018;2022-12-07T15:30:44;6.00;99.90
42187;DHT22;27858;51.414;0.018;2022-12-07T15:33:12;5.90;99.90
42187;DHT22;27858;51.414;0.018;2022-12-07T15:35:43;5.80;99.90
42187;DHT22;27858;51.414;0.018;2022-12-07T15:38:11;5.80;99.90
42187;DHT22;27858;51.414;0.018;2022-12-07T15:40:38;5.70;99.90
42187;DHT22;27858;51.414;0.018;2022-12-07T15:43:05;5.60;99.90
42187;DHT22;27858;51.414;0.018;2022-12-07T15:45:51;5.50;99.90
42187;DHT22;27858;51.414;0.018;2022-12-07T15:48:20;5.50;99.90
42187;DHT22;27858;51.414;0.018;2022-12-07T15:51:06;5.50;99.90
42187;DHT22;27858;51.414;0.018;2022-12-07T15:53:34;5.50;99.90
42187;DHT22;27858;51.414;0.018;2022-12-07T15:56:05;5.50;99.90
42187;DHT22;27858;51.414;0.018;2022-12-07T15:58:32;5.50;99.90
42187;DHT22;27858;51.414;0.018;2022-12-07T16:00:59;5.40;99.90
42187;DHT22;27858;51.414;0.018;2022-12-07T16:03:27;5.50;99.90
42187;DHT22;27858;51.414;0.018;2022-12-07T16:05:53;5.40;99.90
42187;DHT22;27858;51.414;0.018;2022-12-07T16:08:20;5.30;99.90
42187;DHT22;27858;51.414;0.018;2022-12-07T16:10:47;5.40;99.90
42187;DHT22;27858;51.414;0.018;2022-12-07T16:13:14;5.40;99.90
42187;DHT22;27858;51.414;0.018;2022-12-07T16:15:41;5.40;1.00
42187;DHT22;27858;51.414;0.018;2022-12-07T16:18:08;5.30;1.00
42187;DHT22;27858;51.414;0.018;2022-12-07T16:20:35;5.20;1.00
42187;DHT22;27858;51.414;0.018;2022-12-07T16:23:02;5.20;1.00
42187;DHT22;27858;51.414;0.018;2022-12-07T16:25:28;5.10;1.00
42187;DHT22;27858;51.414;0.018;2022-12-07T16:27:55;5.10;1.00
42187;DHT22;27858;51.414;0.018;2022-12-07T16:30:22;5.10;1.00
42187;DHT22;27858;51.414;0.018;2022-12-07T16:32:49;5.10;1.00
42187;DHT22;27858;51.414;0.018;2022-12-07T16:35:15;5.00;1.00
42187;DHT22;27858;51.414;0.018;2022-12-07T16:37:43;4.90;1.00
42187;DHT22;27858;51.414;0.018;2022-12-07T16:40:11;4.90;1.00
42187;DHT22;27858;51.414;0.018;2022-12-07T16:42:38;4.90;1.00
42187;DHT22;27858;51.414;0.018;2022-12-07T16:45:05;4.80;1.00
42187;DHT22;27858;51.414;0.018;2022-12-07T16:47:32;4.80;1.00
42187;DHT22;27858;51.414;0.018;2022-12-07T16:49:59;4.80;1.00
42187;DHT22;27858;51.414;0.018;2022-12-07T16:52:26;4.70;1.00
42187;DHT22;27858;51.414;0.018;2022-12-07T16:54:52;4.70;1.00
42187;DHT22;27858;51.414;0.018;2022-12-07T16:57:19;4.70;1.00
42187;DHT22;27858;51.414;0.018;2022-12-07T16:59:49;4.60;1.00
42187;DHT22;27858;51.414;0.018;2022-12-07T17:02:16;4.60;1.00
42187;DHT22;27858;51.414;0.018;2022-12-07T17:04:43;4.50;1.00
42187;DHT22;27858;51.414;0.018;2022-12-07T17:07:10;4.50;1.00
42187;DHT22;27858;51.414;0.018;2022-12-07T17:09:37;4.50;1.00
42187;DHT22;27858;51.414;0.018;2022-12-07T17:12:04;4.50;1.00
42187;DHT22;27858;51.414;0.018;2022-12-07T17:14:32;4.40;1.00
42187;DHT22;27858;51.414;0.018;2022-12-07T17:17:17;4.40;1.00
42187;DHT22;27858;51.414;0.018;2022-12-07T17:19:44;4.50;1.00
42187;DHT22;27858;51.414;0.018;2022-12-07T17:22:13;4.40;1.00
42187;DHT22;27858;51.414;0.018;2022-12-07T17:24:40;4.40;1.00
42187;DHT22;27858;51.414;0.018;2022-12-07T17:27:07;4.30;1.00
42187;DHT22;27858;51.414;0.018;2022-12-07T17:29:34;4.30;1.00
42187;DHT22;27858;51.414;0.018;2022-12-07T17:32:01;4.30;1.00
42187;DHT22;27858;51.414;0.018;2022-12-07T17:34:28;4.30;1.00
42187;DHT22;27858;51.414;0.018;2022-12-07T17:36:54;4.20;1.00
42187;DHT22;27858;51.414;0.018;2022-12-07T17:39:21;4.10;1.00
42187;DHT22;27858;51.414;0.018;2022-12-07T17:41:48;4.10;1.00
42187;DHT22;27858;51.414;0.018;2022-12-07T17:44:33;4.00;1.00
42187;DHT22;27858;51.414;0.018;2022-12-07T17:47:00;4.10;1.00
42187;DHT22;27858;51.414;0.018;2022-12-07T17:49:29;3.90;1.00
42187;DHT22;27858;51.414;0.018;2022-12-07T17:51:56;3.90;1.00
42187;DHT22;27858;51.414;0.018;2022-12-07T17:54:44;3.90;1.00
42187;DHT22;27858;51.414;0.018;2022-12-07T17:57:11;3.90;1.00
42187;DHT22;27858;51.414;0.018;2022-12-07T17:59:37;3.90;1.00
42187;DHT22;27858;51.414;0.018;2022-12-07T18:02:04;3.80;1.00
42187;DHT22;27858;51.414;0.018;2022-12-07T18:04:32;3.80;1.00
42187;DHT22;27858;51.414;0.018;2022-12-07T18:06:58;3.70;1.00
42187;DHT22;27858;51.414;0.018;2022-12-07T18:09:25;3.70;1.00
42187;DHT22;27858;51.414;0.018;2022-12-07T18:11:52;3.60;1.00
42187;DHT22;27858;51.414;0.018;2022-12-07T18:14:19;3.60;1.00
42187;DHT22;27858;51.414;0.018;2022-12-07T18:16:46;3.60;1.00
42187;DHT22;27858;51.414;0.018;2022-12-07T18:19:15;3.50;1.00
42187;DHT22;27858;51.414;0.018;2022-12-07T18:21:43;3.50;1.00
42187;DHT22;27858;51.414;0.018;2022-12-07T18:24:11;3.50;1.00
42187;DHT22;27858;51.414;0.018;2022-12-07T18:26:39;3.50;1.00
42187;DHT22;27858;51.414;0.018;2022-12-07T18:29:07;3.40;1.00
42187;DHT22;27858;51.414;0.018;2022-12-07T18:31:35;3.40;1.00
42187;DHT22;27858;51.414;0.018;2022-12-07T18:34:05;3.40;1.00
42187;DHT22;27858;51.414;0.018;2022-12-07T18:36:34;3.40;1.00
42187;DHT22;27858;51.414;0.018;2022-12-07T18:39:04;3.30;1.00
42187;DHT22;27858;51.414;0.018;2022-12-07T18:41:31;3.40;1.00
42187;DHT22;27858;51.414;0.018;2022-12-07T18:43:58;3.30;1.00
42187;DHT22;27858;51.414;0.018;2022-12-07T18:46:25;3.30;1.30
42187;DHT22;27858;51.414;0.018;2022-12-07T18:48:52;3.40;2.00
42187;DHT22;27858;51.414;0.018;2022-12-07T18:51:19;3.30;3.10
42187;DHT22;27858;51.414;0.018;2022-12-07T18:53:47;3.20;4.70
42187;DHT22;27858;51.414;0.018;2022-12-07T18:56:16;3.30;7.10
42187;DHT22;27858;51.414;0.018;2022-12-07T18:58:43;3.20;8.20
42187;DHT22;27858;51.414;0.018;2022-12-07T19:01:32;3.20;12.40
42187;DHT22;27858;51.414;0.018;2022-12-07T19:04:00;3.10;13.00
42187;DHT22;27858;51.414;0.018;2022-12-07T19:06:28;3.20;17.30
42187;DHT22;27858;51.414;0.018;2022-12-07T19:08:55;3.20;22.00
42187;DHT22;27858;51.414;0.018;2022-12-07T19:11:32;3.20;25.90
42187;DHT22;27858;51.414;0.018;2022-12-07T19:14:29;3.20;27.50
42187;DHT22;27858;51.414;0.018;2022-12-07T19:16:59;3.20;28.50
42187;DHT22;27858;51.414;0.018;2022-12-07T19:19:31;3.20;29.70
42187;DHT22;27858;51.414;0.018;2022-12-07T19:21:58;3.10;27.10
42187;DHT22;27858;51.414;0.018;2022-12-07T19:24:26;3.10;27.80
42187;DHT22;27858;51.414;0.018;2022-12-07T19:26:53;3.10;27.20
42187;DHT22;27858;51.414;0.018;2022-12-07T19:29:20;3.10;28.70
42187;DHT22;27858;51.414;0.018;2022-12-07T19:31:46;3.00;31.20
42187;DHT22;27858;51.414;0.018;2022-12-07T19:34:15;3.00;34.00
42187;DHT22;27858;51.414;0.018;2022-12-07T19:36:43;3.00;37.10
42187;DHT22;27858;51.414;0.018;2022-12-07T19:39:10;2.90;40.60
42187;DHT22;27858;51.414;0.018;2022-12-07T19:41:44;3.00;44.80
42187;DHT22;27858;51.414;0.018;2022-12-07T19:44:17;2.90;47.80
42187;DHT22;27858;51.414;0.018;2022-12-07T19:46:46;2.80;50.00
42187;DHT22;27858;51.414;0.018;2022-12-07T19:49:16;2.80;49.00
42187;DHT22;27858;51.414;0.018;2022-12-07T19:51:45;2.70;54.80
42187;DHT22;27858;51.414;0.018;2022-12-07T19:54:14;2.80;63.00
42187;DHT22;27858;51.414;0.018;2022-12-07T19:56:41;2.70;67.40
42187;DHT22;27858;51.414;0.018;2022-12-07T19:59:09;2.70;73.50
42187;DHT22;27858;51.414;0.018;2022-12-07T20:01:36;2.70;76.30
42187;DHT22;27858;51.414;0.018;2022-12-07T20:04:05;2.80;80.20
42187;DHT22;27858;51.414;0.018;2022-12-07T20:06:33;2.70;81.50
42187;DHT22;27858;51.414;0.018;2022-12-07T20:09:00;2.70;84.60
42187;DHT22;27858;51.414;0.018;2022-12-07T20:11:26;2.70;86.40
42187;DHT22;27858;51.414;0.018;2022-12-07T20:14:12;2.60;89.60
42187;DHT22;27858;51.414;0.018;2022-12-07T20:16:39;2.70;95.40
42187;DHT22;27858;51.414;0.018;2022-12-07T20:19:07;2.60;97.10
42187;DHT22;27858;51.414;0.018;2022-12-07T20:21:35;2.60;99.20
42187;DHT22;27858;51.414;0.018;2022-12-07T20:24:04;2.50;99.90
42187;DHT22;27858;51.414;0.018;2022-12-07T20:26:33;2.50;99.90
42187;DHT22;27858;51.414;0.018;2022-12-07T20:29:04;2.50;99.90
42187;DHT22;27858;51.414;0.018;2022-12-07T20:31:37;2.50;99.90
42187;DHT22;27858;51.414;0.018;2022-12-07T20:34:04;2.50;99.90
42187;DHT22;27858;51.414;0.018;2022-12-07T20:36:31;2.40;99.90
42187;DHT22;27858;51.414;0.018;2022-12-07T20:39:01;2.50;99.90
42187;DHT22;27858;51.414;0.018;2022-12-07T20:41:28;2.50;99.90
42187;DHT22;27858;51.414;0.018;2022-12-07T20:44:14;2.40;99.90
42187;DHT22;27858;51.414;0.018;2022-12-07T20:46:41;2.50;99.90
42187;DHT22;27858;51.414;0.018;2022-12-07T20:49:09;2.50;99.90
42187;DHT22;27858;51.414;0.018;2022-12-07T20:51:36;2.40;99.90
42187;DHT22;27858;51.414;0.018;2022-12-07T20:54:03;2.40;99.90
42187;DHT22;27858;51.414;0.018;2022-12-07T20:56:31;2.30;99.90
42187;DHT22;27858;51.414;0.018;2022-12-07T20:59:00;2.30;99.90
42187;DHT22;27858;51.414;0.018;2022-12-07T21:01:28;2.30;99.90
42187;DHT22;27858;51.414;0.018;2022-12-07T21:03:56;2.40;99.90
42187;DHT22;27858;51.414;0.018;2022-12-07T21:06:24;2.20;99.90
42187;DHT22;27858;51.414;0.018;2022-12-07T21:08:53;2.30;99.90
42187;DHT22;27858;51.414;0.018;2022-12-07T21:11:21;2.20;99.90
42187;DHT22;27858;51.414;0.018;2022-12-07T21:13:48;2.20;99.90
42187;DHT22;27858;51.414;0.018;2022-12-07T21:16:17;2.20;99.90
42187;DHT22;27858;51.414;0.018;2022-12-07T21:18:45;2.20;99.90
42187;DHT22;27858;51.414;0.018;2022-12-07T21:21:17;2.20;99.90
42187;DHT22;27858;51.414;0.018;2022-12-07T21:23:46;2.20;99.90
42187;DHT22;27858;51.414;0.018;2022-12-07T21:26:19;2.10;99.90
42187;DHT22;27858;51.414;0.018;2022-12-07T21:28:47;2.10;99.90
42187;DHT22;27858;51.414;0.018;2022-12-07T21:31:14;2.10;99.90
42187;DHT22;27858;51.414;0.018;2022-12-07T21:33:41;2.10;99.90
42187;DHT22;27858;51.414;0.018;2022-12-07T21:36:15;2.10;99.90
42187;DHT22;27858;51.414;0.018;2022-12-07T21:38:42;2.10;99.90
42187;DHT22;27858;51.414;0.018;2022-12-07T21:41:32;2.10;99.90